sensor_id;sensor_type;location;lat;lon;timestamp;pressure;altitude;pressure_sealevel;temperature;humidity
73151;BME280;61354;50.758;6.106;2023-05-23T00:00:20;99397.19;;;14.38;100.00
73151;BME280;61354;50.758;6.106;2023-05-23T00:02:46;99392.09;;;14.43;100.00
73151;BME280;61354;50.758;6.106;2023-05-23T00:05:12;99390.22;;;14.51;100.00
73151;BME280;61354;50.758;6.106;2023-05-23T00:07:40;99389.97;;;14.60;100.00
73151;BME280;61354;50.758;6.106;2023-05-23T00:10:05;99385.38;;;14.48;100.00
73151;BME280;61354;50.758;6.106;2023-05-23T00:12:31;99382.06;;;14.42;100.00
73151;BME280;61354;50.758;6.106;2023-05-23T00:14:58;99387.19;;;14.37;100.00
73151;BME280;61354;50.758;6.106;2023-05-23T00:17:23;99393.75;;;14.48;100.00
73151;BME280;61354;50.758;6.106;2023-05-23T00:19:52;99392.91;;;14.44;100.00
73151;BME280;61354;50.758;6.106;2023-05-23T00:22:20;99390.50;;;14.46;100.00
73151;BME280;61354;50.758;6.106;2023-05-23T00:24:46;99386.34;;;14.33;100.00
73151;BME280;61354;50.758;6.106;2023-05-23T00:27:11;99391.19;;;14.36;100.00
73151;BME280;61354;50.758;6.106;2023-05-23T00:29:37;99388.06;;;14.41;100.00
73151;BME280;61354;50.758;6.106;2023-05-23T00:32:03;99398.47;;;14.44;100.00
73151;BME280;61354;50.758;6.106;2023-05-23T00:34:28;99401.59;;;14.39;100.00
73151;BME280;61354;50.758;6.106;2023-05-23T00:36:54;99393.13;;;14.32;100.00
73151;BME280;61354;50.758;6.106;2023-05-23T00:39:20;99394.38;;;14.38;100.00
73151;BME280;61354;50.758;6.106;2023-05-23T00:41:46;99404.75;;;14.37;100.00
73151;BME280;61354;50.758;6.106;2023-05-23T00:44:11;99394.31;;;14.31;100.00
73151;BME280;61354;50.758;6.106;2023-05-23T00:46:37;99397.47;;;14.29;100.00
73151;BME280;61354;50.758;6.106;2023-05-23T00:49:03;99399.13;;;14.34;100.00
73151;BME280;61354;50.758;6.106;2023-05-23T00:51:29;99399.97;;;14.38;100.00
73151;BME280;61354;50.758;6.106;2023-05-23T00:53:56;99384.47;;;14.40;100.00
73151;BME280;61354;50.758;6.106;2023-05-23T00:56:23;99390.97;;;14.22;100.00
73151;BME280;61354;50.758;6.106;2023-05-23T01:06:12;99398.69;;;14.05;100.00
73151;BME280;61354;50.758;6.106;2023-05-23T01:08:37;99398.38;;;14.10;100.00
73151;BME280;61354;50.758;6.106;2023-05-23T01:11:11;99403.31;;;13.94;100.00
73151;BME280;61354;50.758;6.106;2023-05-23T01:13:42;99398.41;;;13.87;100.00
73151;BME280;61354;50.758;6.106;2023-05-23T01:16:38;99405.78;;;13.99;100.00
73151;BME280;61354;50.758;6.106;2023-05-23T01:19:29;99409.50;;;13.84;100.00
73151;BME280;61354;50.758;6.106;2023-05-23T01:22:07;99413.53;;;13.63;100.00
73151;BME280;61354;50.758;6.106;2023-05-23T01:24:53;99414.06;;;13.69;100.00
73151;BME280;61354;50.758;6.106;2023-05-23T01:27:42;99409.06;;;13.59;100.00
73151;BME280;61354;50.758;6.106;2023-05-23T01:30:11;99406.91;;;13.72;100.00
73151;BME280;61354;50.758;6.106;2023-05-23T01:32:38;99409.69;;;13.72;100.00
73151;BME280;61354;50.758;6.106;2023-05-23T01:35:05;99415.91;;;13.61;100.00
73151;BME280;61354;50.758;6.106;2023-05-23T01:37:31;99412.38;;;13.64;100.00
73151;BME280;61354;50.758;6.106;2023-05-23T01:39:56;99414.09;;;13.73;100.00
73151;BME280;61354;50.758;6.106;2023-05-23T01:42:22;99414.72;;;13.62;100.00
73151;BME280;61354;50.758;6.106;2023-05-23T01:44:48;99418.84;;;13.68;100.00
73151;BME280;61354;50.758;6.106;2023-05-23T01:47:14;99426.75;;;13.66;100.00
73151;BME280;61354;50.758;6.106;2023-05-23T01:49:40;99425.31;;;13.76;100.00
73151;BME280;61354;50.758;6.106;2023-05-23T01:52:07;99428.38;;;13.67;100.00
73151;BME280;61354;50.758;6.106;2023-05-23T01:54:36;99437.91;;;13.66;100.00
73151;BME280;61354;50.758;6.106;2023-05-23T01:57:04;99432.28;;;13.63;100.00
73151;BME280;61354;50.758;6.106;2023-05-23T01:59:30;99433.78;;;13.57;100.00
73151;BME280;61354;50.758;6.106;2023-05-23T02:01:56;99440.47;;;13.52;100.00
73151;BME280;61354;50.758;6.106;2023-05-23T02:04:21;99432.97;;;13.56;100.00
73151;BME280;61354;50.758;6.106;2023-05-23T02:06:47;99437.69;;;13.52;100.00
73151;BME280;61354;50.758;6.106;2023-05-23T02:09:12;99434.28;;;13.43;100.00
73151;BME280;61354;50.758;6.106;2023-05-23T02:11:38;99435.84;;;13.40;100.00
73151;BME280;61354;50.758;6.106;2023-05-23T02:14:04;99441.38;;;13.37;100.00
73151;BME280;61354;50.758;6.106;2023-05-23T02:16:29;99452.84;;;13.55;100.00
73151;BME280;61354;50.758;6.106;2023-05-23T02:18:55;99447.81;;;13.41;100.00
73151;BME280;61354;50.758;6.106;2023-05-23T02:21:23;99450.16;;;13.39;100.00
73151;BME280;61354;50.758;6.106;2023-05-23T02:23:49;99449.09;;;13.24;100.00
73151;BME280;61354;50.758;6.106;2023-05-23T02:26:15;99448.09;;;13.16;100.00
73151;BME280;61354;50.758;6.106;2023-05-23T02:28:40;99455.22;;;13.14;100.00
73151;BME280;61354;50.758;6.106;2023-05-23T02:31:06;99455.47;;;13.25;100.00
73151;BME280;61354;50.758;6.106;2023-05-23T02:33:31;99444.59;;;13.00;100.00
73151;BME280;61354;50.758;6.106;2023-05-23T02:35:57;99452.66;;;13.05;100.00
73151;BME280;61354;50.758;6.106;2023-05-23T02:38:23;99455.22;;;13.14;100.00
73151;BME280;61354;50.758;6.106;2023-05-23T02:40:48;99453.75;;;13.01;100.00
73151;BME280;61354;50.758;6.106;2023-05-23T02:43:16;99466.88;;;13.00;100.00
73151;BME280;61354;50.758;6.106;2023-05-23T02:45:41;99459.41;;;13.04;100.00
73151;BME280;61354;50.758;6.106;2023-05-23T02:48:07;99467.34;;;13.02;100.00
73151;BME280;61354;50.758;6.106;2023-05-23T02:50:32;99461.47;;;13.07;100.00
73151;BME280;61354;50.758;6.106;2023-05-23T02:52:58;99467.69;;;13.01;100.00
73151;BME280;61354;50.758;6.106;2023-05-23T02:55:23;99466.00;;;12.96;100.00
73151;BME280;61354;50.758;6.106;2023-05-23T02:57:49;99468.94;;;13.03;100.00
73151;BME280;61354;50.758;6.106;2023-05-23T03:00:15;99466.75;;;13.12;100.00
73151;BME280;61354;50.758;6.106;2023-05-23T03:02:41;99464.75;;;13.13;100.00
73151;BME280;61354;50.758;6.106;2023-05-23T03:05:07;99463.78;;;13.05;100.00
73151;BME280;61354;50.758;6.106;2023-05-23T03:07:32;99460.59;;;13.03;100.00
73151;BME280;61354;50.758;6.106;2023-05-23T03:09:59;99471.66;;;13.00;100.00
73151;BME280;61354;50.758;6.106;2023-05-23T03:12:27;99471.50;;;12.92;100.00
73151;BME280;61354;50.758;6.106;2023-05-23T03:14:52;99471.72;;;13.03;100.00
73151;BME280;61354;50.758;6.106;2023-05-23T03:17:18;99477.31;;;13.03;100.00
73151;BME280;61354;50.758;6.106;2023-05-23T03:19:43;99477.44;;;12.91;100.00
73151;BME280;61354;50.758;6.106;2023-05-23T03:22:09;99480.53;;;12.86;100.00
73151;BME280;61354;50.758;6.106;2023-05-23T03:24:35;99480.06;;;12.84;100.00
73151;BME280;61354;50.758;6.106;2023-05-23T03:27:00;99478.91;;;13.04;100.00
73151;BME280;61354;50.758;6.106;2023-05-23T03:29:26;99479.38;;;13.06;100.00
73151;BME280;61354;50.758;6.106;2023-05-23T03:31:51;99482.16;;;13.06;100.00
73151;BME280;61354;50.758;6.106;2023-05-23T03:34:17;99488.59;;;13.10;100.00
73151;BME280;61354;50.758;6.106;2023-05-23T03:36:42;99488.00;;;13.01;100.00
73151;BME280;61354;50.758;6.106;2023-05-23T03:39:08;99493.31;;;13.06;100.00
73151;BME280;61354;50.758;6.106;2023-05-23T03:41:33;99488.59;;;13.10;100.00
73151;BME280;61354;50.758;6.106;2023-05-23T03:43:59;99489.19;;;13.00;100.00
73151;BME280;61354;50.758;6.106;2023-05-23T03:46:25;99484.34;;;12.97;100.00
73151;BME280;61354;50.758;6.106;2023-05-23T03:48:50;99490.00;;;13.01;100.00
73151;BME280;61354;50.758;6.106;2023-05-23T03:51:16;99486.69;;;12.95;100.00
73151;BME280;61354;50.758;6.106;2023-05-23T03:53:42;99489.47;;;12.95;100.00
73151;BME280;61354;50.758;6.106;2023-05-23T03:56:07;99496.81;;;13.03;100.00
73151;BME280;61354;50.758;6.106;2023-05-23T03:58:33;99494.47;;;13.05;100.00
73151;BME280;61354;50.758;6.106;2023-05-23T04:00:58;99498.31;;;12.81;100.00
73151;BME280;61354;50.758;6.106;2023-05-23T04:03:24;99509.41;;;12.78;100.00
73151;BME280;61354;50.758;6.106;2023-05-23T04:05:50;99511.00;;;12.79;100.00
73151;BME280;61354;50.758;6.106;2023-05-23T04:08:16;99511.75;;;12.76;100.00
73151;BME280;61354;50.758;6.106;2023-05-23T04:10:42;99514.28;;;12.65;100.00
73151;BME280;61354;50.758;6.106;2023-05-23T04:13:07;99510.41;;;12.69;100.00
73151;BME280;61354;50.758;6.106;2023-05-23T04:15:34;99523.78;;;12.80;100.00
73151;BME280;61354;50.758;6.106;2023-05-23T04:17:59;99521.09;;;12.67;100.00
73151;BME280;61354;50.758;6.106;2023-05-23T04:20:25;99527.47;;;12.68;100.00
73151;BME280;61354;50.758;6.106;2023-05-23T04:22:50;99515.03;;;12.81;100.00
73151;BME280;61354;50.758;6.106;2023-05-23T04:25:16;99533.84;;;12.68;100.00
73151;BME280;61354;50.758;6.106;2023-05-23T04:27:43;99531.25;;;12.76;100.00
73151;BME280;61354;50.758;6.106;2023-05-23T04:30:09;99536.38;;;12.74;100.00
73151;BME280;61354;50.758;6.106;2023-05-23T04:32:36;99532.59;;;12.82;100.00
73151;BME280;61354;50.758;6.106;2023-05-23T04:35:02;99540.25;;;12.69;100.00
73151;BME280;61354;50.758;6.106;2023-05-23T04:37:28;99546.78;;;12.77;100.00
73151;BME280;61354;50.758;6.106;2023-05-23T04:39:57;99537.31;;;12.62;100.00
73151;BME280;61354;50.758;6.106;2023-05-23T04:42:24;99538.28;;;12.69;100.00
73151;BME280;61354;50.758;6.106;2023-05-23T04:44:50;99539.59;;;12.76;100.00
73151;BME280;61354;50.758;6.106;2023-05-23T04:47:17;99537.38;;;12.65;100.00
73151;BME280;61354;50.758;6.106;2023-05-23T04:49:43;99537.28;;;12.78;100.00
73151;BME280;61354;50.758;6.106;2023-05-23T04:52:09;99529.72;;;12.78;100.00
73151;BME280;61354;50.758;6.106;2023-05-23T04:54:35;99525.38;;;12.81;100.00
73151;BME280;61354;50.758;6.106;2023-05-23T04:57:02;99520.59;;;12.81;100.00
73151;BME280;61354;50.758;6.106;2023-05-23T04:59:27;99521.19;;;12.71;100.00
73151;BME280;61354;50.758;6.106;2023-05-23T05:01:53;99518.19;;;12.80;100.00
73151;BME280;61354;50.758;6.106;2023-05-23T05:04:19;99528.16;;;12.81;100.00
73151;BME280;61354;50.758;6.106;2023-05-23T05:06:44;99532.59;;;12.82;100.00
73151;BME280;61354;50.758;6.106;2023-05-23T05:09:12;99534.91;;;12.80;100.00
73151;BME280;61354;50.758;6.106;2023-05-23T05:11:37;99536.94;;;12.63;100.00
73151;BME280;61354;50.758;6.106;2023-05-23T05:14:03;99530.81;;;12.74;100.00
73151;BME280;61354;50.758;6.106;2023-05-23T05:16:28;99538.22;;;12.85;100.00
73151;BME280;61354;50.758;6.106;2023-05-23T05:18:54;99541.75;;;12.82;100.00
73151;BME280;61354;50.758;6.106;2023-05-23T05:21:21;99546.97;;;12.84;100.00
73151;BME280;61354;50.758;6.106;2023-05-23T05:23:47;99547.97;;;12.76;100.00
73151;BME280;61354;50.758;6.106;2023-05-23T05:26:12;99548.44;;;12.78;100.00
73151;BME280;61354;50.758;6.106;2023-05-23T05:28:38;99547.78;;;12.68;100.00
73151;BME280;61354;50.758;6.106;2023-05-23T05:31:03;99540.66;;;12.87;100.00
73151;BME280;61354;50.758;6.106;2023-05-23T05:33:29;99541.75;;;12.82;100.00
73151;BME280;61354;50.758;6.106;2023-05-23T05:36:04;99543.31;;;12.99;100.00
73151;BME280;61354;50.758;6.106;2023-05-23T05:38:30;99543.16;;;12.92;100.00
73151;BME280;61354;50.758;6.106;2023-05-23T05:40:56;99553.63;;;12.79;100.00
73151;BME280;61354;50.758;6.106;2023-05-23T05:43:22;99546.88;;;12.80;100.00
73151;BME280;61354;50.758;6.106;2023-05-23T05:45:47;99556.31;;;12.76;100.00
73151;BME280;61354;50.758;6.106;2023-05-23T05:48:13;99549.31;;;12.82;100.00
73151;BME280;61354;50.758;6.106;2023-05-23T05:50:38;99548.56;;;12.85;100.00
73151;BME280;61354;50.758;6.106;2023-05-23T05:53:04;99547.59;;;12.77;100.00
73151;BME280;61354;50.758;6.106;2023-05-23T05:55:30;99558.03;;;12.80;100.00
73151;BME280;61354;50.758;6.106;2023-05-23T05:57:55;99559.72;;;12.85;100.00
73151;BME280;61354;50.758;6.106;2023-05-23T06:00:21;99564.31;;;12.77;100.00
73151;BME280;61354;50.758;6.106;2023-05-23T06:02:47;99564.25;;;12.74;100.00
73151;BME280;61354;50.758;6.106;2023-05-23T06:05:13;99565.19;;;12.81;100.00
73151;BME280;61354;50.758;6.106;2023-05-23T06:07:41;99563.59;;;12.80;100.00
73151;BME280;61354;50.758;6.106;2023-05-23T06:10:07;99561.06;;;12.91;100.00
73151;BME280;61354;50.758;6.106;2023-05-23T06:12:36;99562.34;;;12.78;100.00
73151;BME280;61354;50.758;6.106;2023-05-23T06:15:02;99569.25;;;12.84;100.00
73151;BME280;61354;50.758;6.106;2023-05-23T06:17:27;99569.25;;;12.84;100.00
73151;BME280;61354;50.758;6.106;2023-05-23T06:19:53;99575.53;;;12.81;100.00
73151;BME280;61354;50.758;6.106;2023-05-23T06:22:18;99575.13;;;12.79;100.00
73151;BME280;61354;50.758;6.106;2023-05-23T06:24:44;99590.22;;;12.78;100.00
73151;BME280;61354;50.758;6.106;2023-05-23T06:27:11;99581.88;;;12.78;100.00
73151;BME280;61354;50.758;6.106;2023-05-23T06:29:37;99584.66;;;12.78;100.00
73151;BME280;61354;50.758;6.106;2023-05-23T06:32:03;99584.28;;;12.79;100.00
73151;BME280;61354;50.758;6.106;2023-05-23T06:34:29;99588.38;;;12.85;100.00
73151;BME280;61354;50.758;6.106;2023-05-23T06:36:54;99590.22;;;12.78;100.00
73151;BME280;61354;50.758;6.106;2023-05-23T06:39:20;99589.75;;;12.76;100.00
73151;BME280;61354;50.758;6.106;2023-05-23T06:41:46;99588.06;;;12.71;100.00
73151;BME280;61354;50.758;6.106;2023-05-23T06:44:11;99592.91;;;12.74;100.00
73151;BME280;61354;50.758;6.106;2023-05-23T06:46:37;99593.72;;;12.75;100.00
73151;BME280;61354;50.758;6.106;2023-05-23T06:49:03;99594.91;;;12.74;100.00
73151;BME280;61354;50.758;6.106;2023-05-23T06:51:28;99601.63;;;12.73;100.00
73151;BME280;61354;50.758;6.106;2023-05-23T06:53:54;99592.03;;;12.54;100.00
73151;BME280;61354;50.758;6.106;2023-05-23T06:56:21;99601.38;;;12.78;100.00
73151;BME280;61354;50.758;6.106;2023-05-23T06:58:47;99601.19;;;12.71;100.00
73151;BME280;61354;50.758;6.106;2023-05-23T07:01:13;99607.03;;;12.65;100.00
73151;BME280;61354;50.758;6.106;2023-05-23T07:03:39;99609.81;;;12.65;100.00
73151;BME280;61354;50.758;6.106;2023-05-23T07:06:06;99609.53;;;12.71;100.00
73151;BME280;61354;50.758;6.106;2023-05-23T07:08:32;99613.84;;;12.84;100.00
73151;BME280;61354;50.758;6.106;2023-05-23T07:10:58;99608.28;;;12.84;100.00
73151;BME280;61354;50.758;6.106;2023-05-23T07:13:24;99613.94;;;12.72;100.00
73151;BME280;61354;50.758;6.106;2023-05-23T07:15:50;99614.81;;;12.91;100.00
73151;BME280;61354;50.758;6.106;2023-05-23T07:18:15;99611.66;;;12.93;100.00
73151;BME280;61354;50.758;6.106;2023-05-23T07:20:41;99615.81;;;12.99;100.00
73151;BME280;61354;50.758;6.106;2023-05-23T07:23:06;99617.81;;;12.83;100.00
73151;BME280;61354;50.758;6.106;2023-05-23T07:25:32;99623.19;;;12.76;100.00
73151;BME280;61354;50.758;6.106;2023-05-23T07:27:58;99616.72;;;12.72;100.00
73151;BME280;61354;50.758;6.106;2023-05-23T07:30:23;99620.88;;;12.78;100.00
73151;BME280;61354;50.758;6.106;2023-05-23T07:32:49;99622.97;;;12.65;100.00
73151;BME280;61354;50.758;6.106;2023-05-23T07:35:17;99627.78;;;12.68;100.00
73151;BME280;61354;50.758;6.106;2023-05-23T07:37:43;99625.19;;;12.75;100.00
73151;BME280;61354;50.758;6.106;2023-05-23T07:40:08;99624.47;;;12.62;100.00
73151;BME280;61354;50.758;6.106;2023-05-23T07:42:35;99621.69;;;12.62;100.00
73151;BME280;61354;50.758;6.106;2023-05-23T07:45:01;99625.09;;;12.56;100.00
73151;BME280;61354;50.758;6.106;2023-05-23T07:47:26;99627.53;;;12.73;100.00
73151;BME280;61354;50.758;6.106;2023-05-23T07:49:52;99623.19;;;12.76;100.00
73151;BME280;61354;50.758;6.106;2023-05-23T07:52:18;99631.56;;;12.76;100.00
73151;BME280;61354;50.758;6.106;2023-05-23T07:54:44;99628.06;;;12.79;100.00
73151;BME280;61354;50.758;6.106;2023-05-23T07:57:09;99628.25;;;12.86;100.00
73151;BME280;61354;50.758;6.106;2023-05-23T07:59:35;99638.22;;;12.87;100.00
73151;BME280;61354;50.758;6.106;2023-05-23T08:02:01;99635.81;;;12.69;100.00
73151;BME280;61354;50.758;6.106;2023-05-23T08:04:27;99643.59;;;12.64;100.00
73151;BME280;61354;50.758;6.106;2023-05-23T08:06:54;99640.81;;;12.80;100.00
73151;BME280;61354;50.758;6.106;2023-05-23T08:09:22;99633.63;;;12.79;100.00
73151;BME280;61354;50.758;6.106;2023-05-23T08:11:48;99641.28;;;12.82;100.00
73151;BME280;61354;50.758;6.106;2023-05-23T08:14:14;99645.41;;;12.72;100.00
73151;BME280;61354;50.758;6.106;2023-05-23T08:16:40;99642.72;;;12.76;100.00
73151;BME280;61354;50.758;6.106;2023-05-23T08:19:05;99642.59;;;12.88;100.00
73151;BME280;61354;50.758;6.106;2023-05-23T08:21:31;99645.13;;;12.93;100.00
73151;BME280;61354;50.758;6.106;2023-05-23T08:23:57;99646.56;;;12.87;100.00
73151;BME280;61354;50.758;6.106;2023-05-23T08:26:23;99650.53;;;12.86;100.00
73151;BME280;61354;50.758;6.106;2023-05-23T08:28:49;99642.59;;;12.56;100.00
73151;BME280;61354;50.758;6.106;2023-05-23T08:31:14;99644.41;;;12.64;100.00
73151;BME280;61354;50.758;6.106;2023-05-23T08:33:40;99652.25;;;12.75;100.00
73151;BME280;61354;50.758;6.106;2023-05-23T08:36:06;99657.09;;;12.46;100.00
73151;BME280;61354;50.758;6.106;2023-05-23T08:38:31;99659.88;;;12.46;100.00
73151;BME280;61354;50.758;6.106;2023-05-23T08:41:00;99655.53;;;12.33;100.00
73151;BME280;61354;50.758;6.106;2023-05-23T08:43:26;99662.47;;;12.55;100.00
73151;BME280;61354;50.758;6.106;2023-05-23T08:45:52;99669.13;;;12.50;100.00
73151;BME280;61354;50.758;6.106;2023-05-23T08:48:19;99668.44;;;12.69;100.00
73151;BME280;61354;50.758;6.106;2023-05-23T08:50:46;99668.34;;;12.65;100.00
73151;BME280;61354;50.758;6.106;2023-05-23T08:53:16;99666.25;;;12.62;100.00
73151;BME280;61354;50.758;6.106;2023-05-23T08:55:48;99679.03;;;12.63;100.00
73151;BME280;61354;50.758;6.106;2023-05-23T08:58:16;99669.94;;;12.66;100.00
73151;BME280;61354;50.758;6.106;2023-05-23T09:00:45;99671.94;;;12.66;100.00
73151;BME280;61354;50.758;6.106;2023-05-23T09:03:11;99672.09;;;12.89;100.00
73151;BME280;61354;50.758;6.106;2023-05-23T09:05:38;99682.63;;;12.80;100.00
73151;BME280;61354;50.758;6.106;2023-05-23T09:08:04;99674.22;;;12.48;100.00
73151;BME280;61354;50.758;6.106;2023-05-23T09:10:30;99694.47;;;12.45;100.00
73151;BME280;61354;50.758;6.106;2023-05-23T09:12:56;99693.09;;;12.39;100.00
73151;BME280;61354;50.758;6.106;2023-05-23T09:15:22;99692.56;;;12.33;100.00
73151;BME280;61354;50.758;6.106;2023-05-23T09:17:48;99684.16;;;12.17;100.00
73151;BME280;61354;50.758;6.106;2023-05-23T09:20:16;99684.06;;;12.14;100.00
73151;BME280;61354;50.758;6.106;2023-05-23T09:22:46;99691.16;;;12.11;100.00
73151;BME280;61354;50.758;6.106;2023-05-23T09:25:13;99700.38;;;12.28;100.00
73151;BME280;61354;50.758;6.106;2023-05-23T09:27:38;99700.59;;;12.23;100.00
73151;BME280;61354;50.758;6.106;2023-05-23T09:30:09;99705.34;;;12.22;100.00
73151;BME280;61354;50.758;6.106;2023-05-23T09:32:35;99707.59;;;12.44;100.00
73151;BME280;61354;50.758;6.106;2023-05-23T09:35:03;99697.81;;;12.66;100.00
73151;BME280;61354;50.758;6.106;2023-05-23T09:37:33;99701.06;;;13.00;100.00
73151;BME280;61354;50.758;6.106;2023-05-23T09:40:00;99695.56;;;12.88;100.00
73151;BME280;61354;50.758;6.106;2023-05-23T09:42:31;99696.13;;;12.78;100.00
73151;BME280;61354;50.758;6.106;2023-05-23T09:44:57;99706.00;;;12.75;100.00
73151;BME280;61354;50.758;6.106;2023-05-23T09:47:23;99701.50;;;12.71;100.00
73151;BME280;61354;50.758;6.106;2023-05-23T09:49:48;99702.84;;;12.77;100.00
73151;BME280;61354;50.758;6.106;2023-05-23T09:52:15;99705.69;;;12.64;100.00
73151;BME280;61354;50.758;6.106;2023-05-23T09:54:42;99708.25;;;12.69;100.00
73151;BME280;61354;50.758;6.106;2023-05-23T09:57:09;99716.59;;;12.69;100.00
73151;BME280;61354;50.758;6.106;2023-05-23T09:59:40;99707.59;;;12.60;100.00
73151;BME280;61354;50.758;6.106;2023-05-23T10:02:09;99711.84;;;12.86;100.00
73151;BME280;61354;50.758;6.106;2023-05-23T10:04:36;99710.97;;;12.82;100.00
73151;BME280;61354;50.758;6.106;2023-05-23T10:07:09;99730.72;;;12.77;100.00
73151;BME280;61354;50.758;6.106;2023-05-23T10:09:39;99717.44;;;12.42;100.00
73151;BME280;61354;50.758;6.106;2023-05-23T10:15:00;99734.44;;;12.37;100.00
73151;BME280;61354;50.758;6.106;2023-05-23T10:17:45;99729.03;;;12.44;100.00
73151;BME280;61354;50.758;6.106;2023-05-23T10:20:16;99734.16;;;12.42;100.00
73151;BME280;61354;50.758;6.106;2023-05-23T10:22:45;99729.09;;;12.91;99.76
73151;BME280;61354;50.758;6.106;2023-05-23T10:25:11;99728.94;;;13.00;99.13
73151;BME280;61354;50.758;6.106;2023-05-23T10:27:38;99725.78;;;13.49;96.33
73151;BME280;61354;50.758;6.106;2023-05-23T10:30:06;99721.69;;;13.62;95.06
73151;BME280;61354;50.758;6.106;2023-05-23T10:32:32;99720.25;;;13.68;92.52
73151;BME280;61354;50.758;6.106;2023-05-23T10:38:14;99733.34;;;13.33;89.99
73151;BME280;61354;50.758;6.106;2023-05-23T10:40:53;99722.69;;;13.54;92.71
73151;BME280;61354;50.758;6.106;2023-05-23T10:43:35;99733.22;;;13.80;90.47
73151;BME280;61354;50.758;6.106;2023-05-23T10:46:08;99733.72;;;13.66;88.88
73151;BME280;61354;50.758;6.106;2023-05-23T10:48:35;99733.78;;;13.35;88.03
73151;BME280;61354;50.758;6.106;2023-05-23T10:53:42;99729.84;;;13.36;87.09
73151;BME280;61354;50.758;6.106;2023-05-23T10:56:17;99727.00;;;13.52;85.92
73151;BME280;61354;50.758;6.106;2023-05-23T10:58:44;99718.25;;;13.69;83.35
73151;BME280;61354;50.758;6.106;2023-05-23T11:01:12;99720.09;;;14.00;81.91
73151;BME280;61354;50.758;6.106;2023-05-23T11:06:42;99720.31;;;14.30;80.72
73151;BME280;61354;50.758;6.106;2023-05-23T11:09:18;99727.66;;;14.38;83.75
73151;BME280;61354;50.758;6.106;2023-05-23T11:12:03;99727.09;;;14.10;79.02
73151;BME280;61354;50.758;6.106;2023-05-23T11:17:15;99731.56;;;13.95;80.34
73151;BME280;61354;50.758;6.106;2023-05-23T11:20:06;99738.31;;;13.75;80.90
73151;BME280;61354;50.758;6.106;2023-05-23T11:22:34;99732.25;;;13.53;81.09
73151;BME280;61354;50.758;6.106;2023-05-23T11:25:05;99741.69;;;13.84;83.27
73151;BME280;61354;50.758;6.106;2023-05-23T11:27:33;99733.44;;;13.72;83.74
73151;BME280;61354;50.758;6.106;2023-05-23T11:30:02;99737.47;;;13.90;83.16
73151;BME280;61354;50.758;6.106;2023-05-23T11:32:30;99736.09;;;13.84;82.28
73151;BME280;61354;50.758;6.106;2023-05-23T11:35:05;99733.66;;;13.98;83.66
73151;BME280;61354;50.758;6.106;2023-05-23T11:37:31;99740.84;;;13.99;82.21
73151;BME280;61354;50.758;6.106;2023-05-23T11:39:58;99736.22;;;13.72;81.25
73151;BME280;61354;50.758;6.106;2023-05-23T11:42:23;99741.03;;;14.10;81.47
73151;BME280;61354;50.758;6.106;2023-05-23T11:44:52;99728.41;;;14.16;80.97
73151;BME280;61354;50.758;6.106;2023-05-23T11:47:18;99735.47;;;13.90;79.50
73151;BME280;61354;50.758;6.106;2023-05-23T11:49:45;99733.19;;;13.96;81.17
73151;BME280;61354;50.758;6.106;2023-05-23T11:52:12;99736.06;;;14.19;82.52
73151;BME280;61354;50.758;6.106;2023-05-23T11:54:41;99740.63;;;14.08;79.43
73151;BME280;61354;50.758;6.106;2023-05-23T11:57:11;99740.63;;;14.08;79.26
73151;BME280;61354;50.758;6.106;2023-05-23T11:59:38;99740.84;;;14.18;79.31
73151;BME280;61354;50.758;6.106;2023-05-23T12:02:05;99738.34;;;14.33;79.93
73151;BME280;61354;50.758;6.106;2023-05-23T12:04:33;99745.38;;;13.88;80.22
73151;BME280;61354;50.758;6.106;2023-05-23T12:07:03;99749.47;;;13.75;81.50
73151;BME280;61354;50.758;6.106;2023-05-23T12:09:29;99746.03;;;13.81;81.09
73151;BME280;61354;50.758;6.106;2023-05-23T12:11:54;99741.03;;;14.10;81.46
73151;BME280;61354;50.758;6.106;2023-05-23T12:14:20;99745.69;;;14.22;81.65
73151;BME280;61354;50.758;6.106;2023-05-23T12:16:46;99746.84;;;14.01;81.86
73151;BME280;61354;50.758;6.106;2023-05-23T12:19:11;99748.63;;;13.90;79.49
73151;BME280;61354;50.758;6.106;2023-05-23T12:21:45;99745.63;;;13.99;79.44
73151;BME280;61354;50.758;6.106;2023-05-23T12:24:21;99748.69;;;13.93;78.28
73151;BME280;61354;50.758;6.106;2023-05-23T12:29:18;99749.91;;;14.31;79.67
73151;BME280;61354;50.758;6.106;2023-05-23T12:31:46;99742.97;;;14.06;79.80
73151;BME280;61354;50.758;6.106;2023-05-23T12:34:12;99737.06;;;14.30;80.03
73151;BME280;61354;50.758;6.106;2023-05-23T12:36:37;99740.34;;;14.52;80.26
73151;BME280;61354;50.758;6.106;2023-05-23T12:39:05;99738.06;;;14.57;78.90
73151;BME280;61354;50.758;6.106;2023-05-23T12:41:32;99748.47;;;14.22;77.77
73151;BME280;61354;50.758;6.106;2023-05-23T12:43:58;99744.72;;;13.95;77.93
73151;BME280;61354;50.758;6.106;2023-05-23T12:46:25;99748.47;;;14.22;78.05
73151;BME280;61354;50.758;6.106;2023-05-23T12:48:51;99743.78;;;14.26;77.32
73151;BME280;61354;50.758;6.106;2023-05-23T12:51:17;99739.66;;;14.58;77.55
73151;BME280;61354;50.758;6.106;2023-05-23T12:53:43;99734.00;;;14.55;75.89
73151;BME280;61354;50.758;6.106;2023-05-23T12:56:09;99737.88;;;14.70;76.33
73151;BME280;61354;50.758;6.106;2023-05-23T12:58:35;99738.47;;;14.59;75.39
73151;BME280;61354;50.758;6.106;2023-05-23T13:01:01;99733.75;;;14.63;76.63
73151;BME280;61354;50.758;6.106;2023-05-23T13:03:27;99735.06;;;14.89;76.19
73151;BME280;61354;50.758;6.106;2023-05-23T13:05:55;99732.69;;;15.14;74.24
73151;BME280;61354;50.758;6.106;2023-05-23T13:08:22;99733.88;;;15.39;73.73
73151;BME280;61354;50.758;6.106;2023-05-23T13:10:48;99735.59;;;14.98;72.07
73151;BME280;61354;50.758;6.106;2023-05-23T13:13:14;99736.66;;;14.90;71.91
73151;BME280;61354;50.758;6.106;2023-05-23T13:15:39;99741.19;;;14.98;71.92